Montauk — 9HHE8 — position and weather

sailwx.info

Track history (hours):
 
Tides and Currents Weather Stations Pressure Air Temp Water Temp Dewpoint Dewpoint Depression Visibility Wind Speed Wind Dir Waves Ship Positions

Montauk

Last reported at 2017-May-28 19:49 UTC. Time now 2017-May-29 03:56 UTC.
Position S 04°45' E 011°49'.

Length 106 m; draft 5 m.

Type: Tanker. MMSI: 215978000.

Date/timePositionNaut miles runAvg speedWind from/ knotsBaromVisibWave heightAir tempDewpointWater temp
2017-May-28 19:49S 04°45' E 011°49'0 0.0
2017-May-28 19:25S 04°45' E 011°49'1 0.0
2017-May-26 22:38S 04°45' E 011°49'0 0.0
2017-May-26 22:17S 04°45' E 011°49'0 0.0
2017-May-26 19:44S 04°45' E 011°49'24 4.2
2017-May-26 14:00S 05°00' E 011°31'4 7.6
2017-May-26 13:30S 05°03' E 011°29'4 8.3
2017-May-26 13:00S 05°04' E 011°25'4 8.3
2017-May-26 12:30S 05°06' E 011°21'4 8.1
2017-May-26 12:00S 05°07' E 011°17'5 7.7
2017-May-26 11:24S 05°08' E 011°12'3 7.9
2017-May-26 11:00S 05°08' E 011°09'4 8.0
2017-May-26 10:30S 05°08' E 011°05'10 7.9
2017-May-26 09:17S 05°09' E 010°56'18 0.6
2017-May-25 04:51S 04°57' E 011°10'3 8.7
2017-May-25 04:30S 04°57' E 011°13'4 8.8
2017-May-25 04:00S 04°57' E 011°17'4 8.9
2017-May-25 03:30S 04°57' E 011°22'4 8.7
2017-May-25 03:00S 04°57' E 011°26'4 8.4
2017-May-25 02:29S 04°55' E 011°30'22 2.4
2017-May-24 17:35S 04°46' E 011°50'0 0.0
2017-May-24 17:29S 04°46' E 011°50'0 0.0
2017-May-24 16:56S 04°46' E 011°50'0 0.0
2017-May-24 16:26S 04°46' E 011°50'0 0.0
2017-May-23 23:35S 04°46' E 011°50'0 0.0
2017-May-23 22:04S 04°46' E 011°50'0 0.0
2017-May-23 21:40S 04°46' E 011°50'0 0.0
2017-May-23 21:22S 04°46' E 011°50'0 0.0
2017-May-23 20:58S 04°46' E 011°50'0 0.0
2017-May-23 20:13S 04°46' E 011°50'0 0.0
2017-May-23 19:43S 04°46' E 011°50'0 0.0
2017-May-23 19:19S 04°46' E 011°50'0 0.0
2017-May-23 14:10S 04°46' E 011°50'0 0.0
2017-May-23 06:37S 04°46' E 011°50'0 0.0
2017-May-23 06:25S 04°46' E 011°50'0 0.0
2017-May-23 05:58S 04°46' E 011°50'0 0.0
2017-May-23 05:28S 04°46' E 011°50'0 0.0
2017-May-23 04:58S 04°46' E 011°50'0 0.0
2017-May-23 04:28S 04°46' E 011°50'0 0.0
2017-May-23 01:31S 04°46' E 011°50'0 0.0
2017-May-23 00:07S 04°46' E 011°50'0 0.0
2017-May-22 23:07S 04°46' E 011°50'0 0.0
2017-May-22 21:07S 04°46' E 011°50'0 0.0
2017-May-22 20:49S 04°46' E 011°50'0 0.0
2017-May-22 19:58S 04°46' E 011°50'0 0.0
2017-May-22 18:46S 04°46' E 011°50'0 0.0
2017-May-22 18:28S 04°46' E 011°50'0 0.0
2017-May-22 17:58S 04°46' E 011°50'0 0.0
2017-May-22 17:28S 04°46' E 011°50'0 0.0
2017-May-22 16:55S 04°46' E 011°50'  
2017-May-20 12:09S 04°55' E 011°34'4 7.6
2017-May-20 11:41S 04°56' E 011°31'1 7.5
2017-May-20 11:30S 04°57' E 011°30'4 7.4
2017-May-20 11:00S 04°60' E 011°27'4 7.6
2017-May-20 10:30S 05°02' E 011°24'4 7.6
2017-May-20 10:00S 05°04' E 011°21'4 7.7
2017-May-20 09:30S 05°06' E 011°18'4 7.6
2017-May-20 09:00S 05°09' E 011°15'4 7.4
2017-May-20 08:30S 05°11' E 011°12'4 7.7
2017-May-20 08:00S 05°13' E 011°08'4 7.6
2017-May-20 07:30S 05°16' E 011°06'4 7.7
2017-May-20 07:00S 05°19' E 011°03'4 1.6
2017-May-20 04:14S 05°15' E 011°05'1 1.8
2017-May-20 03:49S 05°14' E 011°05'1 1.8
2017-May-20 03:26S 05°13' E 011°05'1 1.7
2017-May-20 03:00S 05°13' E 011°05'1 1.5
2017-May-20 02:31S 05°12' E 011°06'1 2.1
2017-May-20 02:00S 05°11' E 011°06'2 3.4
2017-May-20 01:30S 05°09' E 011°07'2 3.4
2017-May-20 01:00S 05°08' E 011°07'2 3.4
2017-May-20 00:30S 05°06' E 011°08'2 3.4
2017-May-20 00:00S 05°04' E 011°09'2 3.3
2017-May-19 23:30S 05°03' E 011°09'2 3.4
2017-May-19 23:00S 05°01' E 011°10'2 3.4
2017-May-19 22:25S 04°60' E 011°11'1 3.5
2017-May-19 22:00S 04°58' E 011°11'2 3.5
2017-May-19 21:30S 04°57' E 011°12'1 2.7
2017-May-19 21:00S 04°55' E 011°12'1 2.7
2017-May-19 20:30S 04°54' E 011°13'1 2.0
2017-May-19 19:51S 04°54' E 011°14'4 6.6
2017-May-19 19:15S 04°56' E 011°18'2 8.7
2017-May-19 19:00S 04°57' E 011°20'4 8.3
2017-May-19 18:30S 04°58' E 011°23'4 8.5
2017-May-19 18:00S 04°56' E 011°27'4 8.4
2017-May-19 17:30S 04°54' E 011°31'  
Track history (hours):
 
Tides and Currents Weather Stations Pressure Air Temp Water Temp Dewpoint Dewpoint Depression Visibility Wind Speed Wind Dir Waves Ship Positions

Montauk

Last reported at 2017-May-28 19:49 UTC. Time now 2017-May-29 03:56 UTC.
Position S 04°45' E 011°49'.

Length 106 m; draft 5 m.

Type: Tanker. MMSI: 215978000.

Date/timePositionNaut miles runAvg speedWind from/ knotsBaromVisibWave heightAir tempDewpointWater temp
2017-May-28 19:49S 04°45' E 011°49'0 0.0
2017-May-28 19:25S 04°45' E 011°49'1 0.0
2017-May-26 22:38S 04°45' E 011°49'0 0.0
2017-May-26 22:17S 04°45' E 011°49'0 0.0
2017-May-26 19:44S 04°45' E 011°49'24 4.2
2017-May-26 14:00S 05°00' E 011°31'4 7.6
2017-May-26 13:30S 05°03' E 011°29'4 8.3
2017-May-26 13:00S 05°04' E 011°25'4 8.3
2017-May-26 12:30S 05°06' E 011°21'4 8.1
2017-May-26 12:00S 05°07' E 011°17'5 7.7
2017-May-26 11:24S 05°08' E 011°12'3 7.9
2017-May-26 11:00S 05°08' E 011°09'4 8.0
2017-May-26 10:30S 05°08' E 011°05'10 7.9
2017-May-26 09:17S 05°09' E 010°56'18 0.6
2017-May-25 04:51S 04°57' E 011°10'3 8.7
2017-May-25 04:30S 04°57' E 011°13'4 8.8
2017-May-25 04:00S 04°57' E 011°17'4 8.9
2017-May-25 03:30S 04°57' E 011°22'4 8.7
2017-May-25 03:00S 04°57' E 011°26'4 8.4
2017-May-25 02:29S 04°55' E 011°30'22 2.4
2017-May-24 17:35S 04°46' E 011°50'0 0.0
2017-May-24 17:29S 04°46' E 011°50'0 0.0
2017-May-24 16:56S 04°46' E 011°50'0 0.0
2017-May-24 16:26S 04°46' E 011°50'0 0.0
2017-May-23 23:35S 04°46' E 011°50'0 0.0
2017-May-23 22:04S 04°46' E 011°50'0 0.0
2017-May-23 21:40S 04°46' E 011°50'0 0.0
2017-May-23 21:22S 04°46' E 011°50'0 0.0
2017-May-23 20:58S 04°46' E 011°50'0 0.0
2017-May-23 20:13S 04°46' E 011°50'0 0.0
2017-May-23 19:43S 04°46' E 011°50'0 0.0
2017-May-23 19:19S 04°46' E 011°50'0 0.0
2017-May-23 14:10S 04°46' E 011°50'0 0.0
2017-May-23 06:37S 04°46' E 011°50'0 0.0
2017-May-23 06:25S 04°46' E 011°50'0 0.0
2017-May-23 05:58S 04°46' E 011°50'0 0.0
2017-May-23 05:28S 04°46' E 011°50'0 0.0
2017-May-23 04:58S 04°46' E 011°50'0 0.0
2017-May-23 04:28S 04°46' E 011°50'0 0.0
2017-May-23 01:31S 04°46' E 011°50'0 0.0
2017-May-23 00:07S 04°46' E 011°50'0 0.0
2017-May-22 23:07S 04°46' E 011°50'0 0.0
2017-May-22 21:07S 04°46' E 011°50'0 0.0
2017-May-22 20:49S 04°46' E 011°50'0 0.0
2017-May-22 19:58S 04°46' E 011°50'0 0.0
2017-May-22 18:46S 04°46' E 011°50'0 0.0
2017-May-22 18:28S 04°46' E 011°50'0 0.0
2017-May-22 17:58S 04°46' E 011°50'0 0.0
2017-May-22 17:28S 04°46' E 011°50'0 0.0
2017-May-22 16:55S 04°46' E 011°50'  
2017-May-20 12:09S 04°55' E 011°34'4 7.6
2017-May-20 11:41S 04°56' E 011°31'1 7.5
2017-May-20 11:30S 04°57' E 011°30'4 7.4
2017-May-20 11:00S 04°60' E 011°27'4 7.6
2017-May-20 10:30S 05°02' E 011°24'4 7.6
2017-May-20 10:00S 05°04' E 011°21'4 7.7
2017-May-20 09:30S 05°06' E 011°18'4 7.6
2017-May-20 09:00S 05°09' E 011°15'4 7.4
2017-May-20 08:30S 05°11' E 011°12'4 7.7
2017-May-20 08:00S 05°13' E 011°08'4 7.6
2017-May-20 07:30S 05°16' E 011°06'4 7.7
2017-May-20 07:00S 05°19' E 011°03'4 1.6
2017-May-20 04:14S 05°15' E 011°05'1 1.8
2017-May-20 03:49S 05°14' E 011°05'1 1.8
2017-May-20 03:26S 05°13' E 011°05'1 1.7
2017-May-20 03:00S 05°13' E 011°05'1 1.5
2017-May-20 02:31S 05°12' E 011°06'1 2.1
2017-May-20 02:00S 05°11' E 011°06'2 3.4
2017-May-20 01:30S 05°09' E 011°07'2 3.4
2017-May-20 01:00S 05°08' E 011°07'2 3.4
2017-May-20 00:30S 05°06' E 011°08'2 3.4
2017-May-20 00:00S 05°04' E 011°09'2 3.3
2017-May-19 23:30S 05°03' E 011°09'2 3.4
2017-May-19 23:00S 05°01' E 011°10'2 3.4
2017-May-19 22:25S 04°60' E 011°11'1 3.5
2017-May-19 22:00S 04°58' E 011°11'2 3.5
2017-May-19 21:30S 04°57' E 011°12'1 2.7
2017-May-19 21:00S 04°55' E 011°12'1 2.7
2017-May-19 20:30S 04°54' E 011°13'1 2.0
2017-May-19 19:51S 04°54' E 011°14'4 6.6
2017-May-19 19:15S 04°56' E 011°18'2 8.7
2017-May-19 19:00S 04°57' E 011°20'4 8.3
2017-May-19 18:30S 04°58' E 011°23'4 8.5
2017-May-19 18:00S 04°56' E 011°27'4 8.4
2017-May-19 17:30S 04°54' E 011°31'  

Dump ship's entire track history